sensor_id;sensor_type;location;lat;lon;timestamp;P1;durP1;ratioP1;P2;durP2;ratioP2
1122;SDS011;548;48.778;9.252;2023-02-02T10:12:24;11.53;;;10.53;;
1122;SDS011;548;48.778;9.252;2023-02-02T10:14:57;12.67;;;11.87;;
1122;SDS011;548;48.778;9.252;2023-02-02T10:17:34;11.80;;;11.00;;
1122;SDS011;548;48.778;9.252;2023-02-02T10:20:13;12.37;;;11.60;;
1122;SDS011;548;48.778;9.252;2023-02-02T10:22:50;11.93;;;11.03;;
1122;SDS011;548;48.778;9.252;2023-02-02T10:25:22;12.47;;;11.57;;
1122;SDS011;548;48.778;9.252;2023-02-02T10:27:55;11.23;;;10.63;;
1122;SDS011;548;48.778;9.252;2023-02-02T10:30:28;11.90;;;11.00;;
1122;SDS011;548;48.778;9.252;2023-02-02T10:33:03;12.53;;;11.63;;
1122;SDS011;548;48.778;9.252;2023-02-02T10:35:33;10.97;;;10.23;;
1122;SDS011;548;48.778;9.252;2023-02-02T10:38:05;11.13;;;10.30;;
1122;SDS011;548;48.778;9.252;2023-02-02T10:40:44;11.90;;;11.17;;
1122;SDS011;548;48.778;9.252;2023-02-02T10:43:31;11.93;;;11.20;;
1122;SDS011;548;48.778;9.252;2023-02-02T10:46:16;11.53;;;10.70;;
1122;SDS011;548;48.778;9.252;2023-02-02T10:48:47;12.13;;;11.33;;
1122;SDS011;548;48.778;9.252;2023-02-02T10:51:19;11.87;;;11.07;;
1122;SDS011;548;48.778;9.252;2023-02-02T10:53:49;11.60;;;10.80;;
1122;SDS011;548;48.778;9.252;2023-02-02T10:56:17;14.40;;;13.40;;
1122;SDS011;548;48.778;9.252;2023-02-02T10:58:50;17.13;;;16.23;;
1122;SDS011;548;48.778;9.252;2023-02-02T11:01:23;16.57;;;15.80;;
1122;SDS011;548;48.778;9.252;2023-02-02T11:03:49;16.10;;;15.23;;
1122;SDS011;548;48.778;9.252;2023-02-02T11:06:37;16.70;;;15.53;;
1122;SDS011;548;48.778;9.252;2023-02-02T11:09:15;14.23;;;13.63;;
1122;SDS011;548;48.778;9.252;2023-02-02T11:11:44;14.43;;;13.23;;
1122;SDS011;548;48.778;9.252;2023-02-02T11:14:16;14.43;;;13.77;;
1122;SDS011;548;48.778;9.252;2023-02-02T11:16:58;14.23;;;13.47;;
1122;SDS011;548;48.778;9.252;2023-02-02T11:19:27;13.27;;;12.57;;
1122;SDS011;548;48.778;9.252;2023-02-02T11:21:55;14.87;;;13.67;;
1122;SDS011;548;48.778;9.252;2023-02-02T11:24:23;14.70;;;13.70;;
1122;SDS011;548;48.778;9.252;2023-02-02T11:26:53;14.23;;;13.33;;
1122;SDS011;548;48.778;9.252;2023-02-02T11:29:24;13.27;;;12.20;;
1122;SDS011;548;48.778;9.252;2023-02-02T11:31:54;12.40;;;11.90;;
1122;SDS011;548;48.778;9.252;2023-02-02T11:34:21;12.03;;;11.33;;
1122;SDS011;548;48.778;9.252;2023-02-02T11:36:56;12.63;;;12.00;;
1122;SDS011;548;48.778;9.252;2023-02-02T11:39:28;11.13;;;10.63;;
1122;SDS011;548;48.778;9.252;2023-02-02T11:41:59;12.27;;;11.40;;
1122;SDS011;548;48.778;9.252;2023-02-02T11:44:28;11.63;;;11.00;;
1122;SDS011;548;48.778;9.252;2023-02-02T11:46:58;12.10;;;11.40;;
1122;SDS011;548;48.778;9.252;2023-02-02T11:49:26;11.67;;;10.80;;
1122;SDS011;548;48.778;9.252;2023-02-02T11:51:57;11.50;;;11.00;;
1122;SDS011;548;48.778;9.252;2023-02-02T11:54:25;12.00;;;11.03;;
1122;SDS011;548;48.778;9.252;2023-02-02T11:56:55;12.63;;;11.90;;
1122;SDS011;548;48.778;9.252;2023-02-02T11:59:25;12.37;;;11.67;;
1122;SDS011;548;48.778;9.252;2023-02-02T12:04:50;15.20;;;14.27;;
1122;SDS011;548;48.778;9.252;2023-02-02T12:07:18;13.30;;;12.70;;
1122;SDS011;548;48.778;9.252;2023-02-02T12:09:49;16.97;;;15.80;;
1122;SDS011;548;48.778;9.252;2023-02-02T12:12:22;16.67;;;15.73;;
1122;SDS011;548;48.778;9.252;2023-02-02T12:15:01;17.23;;;16.33;;
1122;SDS011;548;48.778;9.252;2023-02-02T12:17:36;18.10;;;16.77;;
1122;SDS011;548;48.778;9.252;2023-02-02T12:20:17;18.67;;;17.67;;
1122;SDS011;548;48.778;9.252;2023-02-02T12:23:08;19.80;;;18.80;;
1122;SDS011;548;48.778;9.252;2023-02-02T12:25:52;19.90;;;18.70;;
1122;SDS011;548;48.778;9.252;2023-02-02T12:28:32;21.43;;;20.33;;
1122;SDS011;548;48.778;9.252;2023-02-02T12:31:09;21.90;;;20.60;;
1122;SDS011;548;48.778;9.252;2023-02-02T12:33:43;21.00;;;19.80;;
1122;SDS011;548;48.778;9.252;2023-02-02T12:36:30;22.13;;;20.93;;
1122;SDS011;548;48.778;9.252;2023-02-02T12:39:08;21.77;;;20.20;;
1122;SDS011;548;48.778;9.252;2023-02-02T12:41:48;21.80;;;20.90;;
1122;SDS011;548;48.778;9.252;2023-02-02T12:44:50;21.83;;;20.80;;
1122;SDS011;548;48.778;9.252;2023-02-02T12:47:40;23.03;;;21.73;;
1122;SDS011;548;48.778;9.252;2023-02-02T12:50:16;21.00;;;20.00;;
1122;SDS011;548;48.778;9.252;2023-02-02T12:53:07;21.60;;;20.43;;
1122;SDS011;548;48.778;9.252;2023-02-02T12:55:46;23.03;;;21.60;;
1122;SDS011;548;48.778;9.252;2023-02-02T12:58:20;23.77;;;22.57;;
1122;SDS011;548;48.778;9.252;2023-02-02T13:03:51;25.00;;;23.60;;
1122;SDS011;548;48.778;9.252;2023-02-02T13:06:33;25.93;;;24.40;;
1122;SDS011;548;48.778;9.252;2023-02-02T13:09:18;25.07;;;23.67;;
1122;SDS011;548;48.778;9.252;2023-02-02T13:11:51;23.93;;;22.70;;
1122;SDS011;548;48.778;9.252;2023-02-02T13:14:22;25.13;;;23.20;;
1122;SDS011;548;48.778;9.252;2023-02-02T13:16:53;23.80;;;22.50;;
1122;SDS011;548;48.778;9.252;2023-02-02T13:19:25;24.67;;;23.00;;
1122;SDS011;548;48.778;9.252;2023-02-02T13:21:57;25.47;;;23.77;;
1122;SDS011;548;48.778;9.252;2023-02-02T13:24:27;24.00;;;22.30;;
1122;SDS011;548;48.778;9.252;2023-02-02T13:26:56;25.27;;;23.57;;
1122;SDS011;548;48.778;9.252;2023-02-02T13:29:28;23.70;;;22.50;;
1122;SDS011;548;48.778;9.252;2023-02-02T13:31:58;24.50;;;22.80;;
1122;SDS011;548;48.778;9.252;2023-02-02T13:34:34;23.30;;;21.90;;
1122;SDS011;548;48.778;9.252;2023-02-02T13:37:07;23.03;;;21.80;;
1122;SDS011;548;48.778;9.252;2023-02-02T13:39:42;24.40;;;22.53;;
1122;SDS011;548;48.778;9.252;2023-02-02T13:42:21;23.17;;;21.77;;
1122;SDS011;548;48.778;9.252;2023-02-02T13:44:55;21.70;;;19.80;;
1122;SDS011;548;48.778;9.252;2023-02-02T13:47:28;15.47;;;14.67;;
1122;SDS011;548;48.778;9.252;2023-02-02T13:50:05;13.33;;;12.53;;
1122;SDS011;548;48.778;9.252;2023-02-02T13:52:41;14.13;;;13.33;;
1122;SDS011;548;48.778;9.252;2023-02-02T13:55:33;13.63;;;12.80;;
1122;SDS011;548;48.778;9.252;2023-02-02T13:58:27;13.83;;;12.73;;
1122;SDS011;548;48.778;9.252;2023-02-02T14:01:13;12.90;;;12.20;;
1122;SDS011;548;48.778;9.252;2023-02-02T14:03:40;13.57;;;12.67;;
1122;SDS011;548;48.778;9.252;2023-02-02T14:06:11;13.43;;;12.67;;
1122;SDS011;548;48.778;9.252;2023-02-02T14:08:44;15.23;;;14.33;;
1122;SDS011;548;48.778;9.252;2023-02-02T14:11:18;12.40;;;11.90;;
1122;SDS011;548;48.778;9.252;2023-02-02T14:13:49;14.27;;;13.37;;
1122;SDS011;548;48.778;9.252;2023-02-02T14:16:43;13.37;;;12.30;;
1122;SDS011;548;48.778;9.252;2023-02-02T14:19:13;13.80;;;12.87;;
1122;SDS011;548;48.778;9.252;2023-02-02T14:21:58;13.13;;;12.53;;
1122;SDS011;548;48.778;9.252;2023-02-02T14:24:37;13.73;;;12.90;;
1122;SDS011;548;48.778;9.252;2023-02-02T14:30:23;12.90;;;12.20;;
1122;SDS011;548;48.778;9.252;2023-02-02T14:35:52;14.37;;;13.43;;
1122;SDS011;548;48.778;9.252;2023-02-02T14:38:29;15.00;;;13.40;;
1122;SDS011;548;48.778;9.252;2023-02-02T14:41:14;11.70;;;11.20;;
1122;SDS011;548;48.778;9.252;2023-02-02T14:44:07;12.33;;;11.37;;
1122;SDS011;548;48.778;9.252;2023-02-02T14:46:33;12.70;;;12.00;;
1122;SDS011;548;48.778;9.252;2023-02-02T14:49:07;17.73;;;13.30;;
1122;SDS011;548;48.778;9.252;2023-02-02T14:51:45;12.27;;;11.37;;
1122;SDS011;548;48.778;9.252;2023-02-02T14:54:25;12.80;;;12.10;;
1122;SDS011;548;48.778;9.252;2023-02-02T14:56:56;14.03;;;12.93;;
1122;SDS011;548;48.778;9.252;2023-02-02T14:59:26;11.93;;;11.27;;
1122;SDS011;548;48.778;9.252;2023-02-02T15:02:01;11.77;;;11.27;;
1122;SDS011;548;48.778;9.252;2023-02-02T15:04:39;13.10;;;12.20;;
1122;SDS011;548;48.778;9.252;2023-02-02T15:10:04;14.10;;;13.10;;
1122;SDS011;548;48.778;9.252;2023-02-02T15:12:38;12.40;;;11.50;;
1122;SDS011;548;48.778;9.252;2023-02-02T15:15:18;11.70;;;11.20;;
1122;SDS011;548;48.778;9.252;2023-02-02T15:17:49;12.93;;;12.27;;
1122;SDS011;548;48.778;9.252;2023-02-02T15:20:25;13.50;;;12.80;;
1122;SDS011;548;48.778;9.252;2023-02-02T15:22:55;11.90;;;11.30;;
1122;SDS011;548;48.778;9.252;2023-02-02T15:25:27;12.83;;;11.83;;
1122;SDS011;548;48.778;9.252;2023-02-02T15:27:59;13.00;;;12.07;;
1122;SDS011;548;48.778;9.252;2023-02-02T15:30:29;12.93;;;12.07;;
1122;SDS011;548;48.778;9.252;2023-02-02T15:33:02;13.87;;;12.87;;
1122;SDS011;548;48.778;9.252;2023-02-02T15:35:32;12.53;;;11.90;;
1122;SDS011;548;48.778;9.252;2023-02-02T15:38:00;12.50;;;12.00;;
1122;SDS011;548;48.778;9.252;2023-02-02T15:40:31;13.63;;;12.70;;
1122;SDS011;548;48.778;9.252;2023-02-02T15:43:02;12.73;;;11.60;;
1122;SDS011;548;48.778;9.252;2023-02-02T15:45:38;14.03;;;12.80;;
1122;SDS011;548;48.778;9.252;2023-02-02T15:48:19;12.70;;;11.90;;
1122;SDS011;548;48.778;9.252;2023-02-02T15:50:47;13.43;;;12.63;;
1122;SDS011;548;48.778;9.252;2023-02-02T15:53:19;13.23;;;12.20;;
1122;SDS011;548;48.778;9.252;2023-02-02T15:55:49;13.20;;;12.20;;
1122;SDS011;548;48.778;9.252;2023-02-02T15:58:24;13.23;;;12.43;;
1122;SDS011;548;48.778;9.252;2023-02-02T16:01:00;12.63;;;11.90;;
1122;SDS011;548;48.778;9.252;2023-02-02T16:03:30;13.13;;;12.20;;
1122;SDS011;548;48.778;9.252;2023-02-02T16:06:03;12.70;;;12.00;;
1122;SDS011;548;48.778;9.252;2023-02-02T16:08:32;12.00;;;11.20;;
1122;SDS011;548;48.778;9.252;2023-02-02T16:11:06;11.80;;;11.00;;
1122;SDS011;548;48.778;9.252;2023-02-02T16:13:35;13.30;;;12.13;;
1122;SDS011;548;48.778;9.252;2023-02-02T16:16:03;12.87;;;12.00;;
1122;SDS011;548;48.778;9.252;2023-02-02T16:18:32;12.60;;;11.80;;
1122;SDS011;548;48.778;9.252;2023-02-02T16:21:01;12.97;;;11.80;;
1122;SDS011;548;48.778;9.252;2023-02-02T16:23:32;12.37;;;11.83;;
1122;SDS011;548;48.778;9.252;2023-02-02T16:26:01;12.83;;;12.23;;
1122;SDS011;548;48.778;9.252;2023-02-02T16:28:31;13.70;;;12.50;;
1122;SDS011;548;48.778;9.252;2023-02-02T16:30:59;12.33;;;11.50;;
1122;SDS011;548;48.778;9.252;2023-02-02T16:33:28;11.90;;;11.20;;
1122;SDS011;548;48.778;9.252;2023-02-02T16:36:00;12.67;;;11.70;;
1122;SDS011;548;48.778;9.252;2023-02-02T16:38:29;11.40;;;10.70;;
1122;SDS011;548;48.778;9.252;2023-02-02T16:41:01;12.30;;;11.17;;
1122;SDS011;548;48.778;9.252;2023-02-02T16:43:33;12.17;;;11.47;;
1122;SDS011;548;48.778;9.252;2023-02-02T16:46:02;12.43;;;11.80;;
1122;SDS011;548;48.778;9.252;2023-02-02T16:48:31;12.67;;;11.93;;
1122;SDS011;548;48.778;9.252;2023-02-02T16:53:57;13.00;;;12.40;;
1122;SDS011;548;48.778;9.252;2023-02-02T16:56:28;12.53;;;11.50;;
1122;SDS011;548;48.778;9.252;2023-02-02T16:59:00;11.33;;;10.63;;
1122;SDS011;548;48.778;9.252;2023-02-02T17:01:30;12.83;;;11.93;;
1122;SDS011;548;48.778;9.252;2023-02-02T17:04:01;11.53;;;10.73;;
1122;SDS011;548;48.778;9.252;2023-02-02T17:06:30;11.60;;;11.10;;
1122;SDS011;548;48.778;9.252;2023-02-02T17:09:12;11.70;;;11.10;;
1122;SDS011;548;48.778;9.252;2023-02-02T17:11:49;11.40;;;10.80;;
1122;SDS011;548;48.778;9.252;2023-02-02T17:14:28;11.47;;;10.97;;
1122;SDS011;548;48.778;9.252;2023-02-02T17:16:57;11.30;;;10.63;;
1122;SDS011;548;48.778;9.252;2023-02-02T17:19:27;9.87;;;9.23;;
1122;SDS011;548;48.778;9.252;2023-02-02T17:21:54;10.37;;;9.97;;
1122;SDS011;548;48.778;9.252;2023-02-02T17:24:22;11.77;;;11.20;;
1122;SDS011;548;48.778;9.252;2023-02-02T17:26:49;11.20;;;10.80;;
1122;SDS011;548;48.778;9.252;2023-02-02T17:29:17;10.43;;;9.93;;
1122;SDS011;548;48.778;9.252;2023-02-02T17:31:46;10.70;;;10.30;;
1122;SDS011;548;48.778;9.252;2023-02-02T17:34:13;11.07;;;10.50;;
1122;SDS011;548;48.778;9.252;2023-02-02T17:36:40;10.90;;;10.40;;
1122;SDS011;548;48.778;9.252;2023-02-02T17:39:07;11.60;;;11.07;;
1122;SDS011;548;48.778;9.252;2023-02-02T17:41:34;11.77;;;11.20;;
1122;SDS011;548;48.778;9.252;2023-02-02T17:44:01;11.20;;;10.70;;
1122;SDS011;548;48.778;9.252;2023-02-02T17:46:29;10.70;;;10.30;;
1122;SDS011;548;48.778;9.252;2023-02-02T17:48:57;11.40;;;10.90;;
1122;SDS011;548;48.778;9.252;2023-02-02T17:51:24;10.80;;;10.20;;
1122;SDS011;548;48.778;9.252;2023-02-02T17:53:51;10.87;;;10.37;;
1122;SDS011;548;48.778;9.252;2023-02-02T17:56:19;11.37;;;10.67;;
1122;SDS011;548;48.778;9.252;2023-02-02T17:58:46;11.97;;;11.37;;
